MDT,Max TemperatureF,Mean TemperatureF,Min TemperatureF,Max Dew PointF,MeanDew PointF,Min DewpointF,Max Humidity, Mean Humidity, Min Humidity, Max Sea Level PressureIn, Mean Sea Level PressureIn, Min Sea Level PressureIn, Max VisibilityMiles, Mean VisibilityMiles, Min VisibilityMiles, Max Wind SpeedMPH, Mean Wind SpeedMPH, Max Gust SpeedMPH,PrecipitationIn, CloudCover, Events, WindDirDegrees
2012-10-1,62,50,39,32,29,19,75,46,25,30.43,30.35,30.20,10.0,10.0,10.0,21,13,26,0.00,0,,268
2012-10-2,64,55,46,23,19,12,37,25,13,30.20,30.10,30.02,10.0,10.0,10.0,18,7,26,0.00,0,,249
2012-10-3,53,38,23,30,18,1,93,48,13,30.21,30.03,29.93,10.0,10.0,10.0,30,12,39,0.00,1,,315
2012-10-4,42,30,19,21,19,10,100,70,27,30.18,30.12,30.09,10.0,10.0,10.0,26,11,32,0.00,4,,32
2012-10-5,33,28,23,25,22,19,100,81,60,30.16,30.13,30.09,10.0,9.2,0.2,29,16,34,0.00,6,Fog-Snow,14
2012-10-6,35,27,19,23,19,10,100,79,35,30.20,30.13,30.11,10.0,8.3,0.2,16,9,23,0.00,4,Snow,26
2012-10-7,46,34,23,19,11,5,80,39,23,30.12,30.06,30.03,10.0,10.0,10.0,15,8,23,0.00,0,,266
2012-10-8,53,44,35,12,7,1,35,22,13,30.04,29.97,29.92,10.0,10.0,10.0,25,7,33,0.00,0,,268
2012-10-9,46,37,28,32,24,-2,100,66,15,30.13,30.04,29.96,10.0,10.0,10.0,13,6,17,0.00,0,,20
2012-10-10,59,46,33,28,17,9,81,35,15,30.13,30.08,30.04,10.0,10.0,10.0,22,8,32,0.00,0,,258
2012-10-11,60,50,39,30,24,18,53,36,25,30.14,30.11,30.08,10.0,10.0,10.0,13,6,18,0.00,2,,232
2012-10-12,55,48,41,41,32,25,93,56,36,30.12,30.03,29.94,10.0,10.0,10.0,24,9,31,0.00,4,,221
2012-10-13,55,45,35,39,33,27,100,64,35,30.26,30.07,29.96,10.0,9.4,0.2,15,10,25,0.02,6,Fog-Rain,305
2012-10-14,53,43,33,32,28,21,93,55,30,30.30,30.26,30.21,10.0,10.0,10.0,20,9,26,0.00,0,,258
2012-10-15,51,46,41,32,25,5,65,44,15,30.21,30.08,30.00,10.0,10.0,10.0,34,13,46,0.00,0,,264
2012-10-16,44,38,32,39,32,23,93,72,53,30.02,29.82,29.66,10.0,9.2,3.0,40,12,55,0.24,5,Rain,245
2012-10-17,39,31,23,23,11,5,75,44,28,30.08,29.93,29.79,10.0,10.0,10.0,24,8,31,0.00,0,,244
2012-10-18,51,40,28,21,14,9,51,38,26,30.18,30.14,30.08,10.0,10.0,10.0,12,3,16,0.00,0,,241
2012-10-19,51,44,37,27,22,12,60,43,28,30.15,30.05,29.97,10.0,10.0,10.0,21,6,30,0.00,1,,244
2012-10-20,57,49,41,27,23,19,57,38,25,29.96,29.82,29.75,10.0,10.0,10.0,34,13,48,0.00,2,,250
2012-10-21,50,44,37,37,31,27,100,63,43,29.89,29.84,29.78,10.0,9.8,3.0,21,11,28,0.06,7,Rain-Thunderstorm,233
2012-10-22,44,38,33,43,37,34,100,90,71,29.88,29.76,29.68,10.0,8.7,2.0,18,11,31,0.33,7,Rain-Snow-Thunderstorm,226
2012-10-23,35,30,26,36,28,23,100,93,75,29.84,29.75,29.65,10.0,4.0,0.2,18,13,30,0.00,8,Fog-Rain-Snow,249
2012-10-24,28,24,21,27,22,18,100,89,69,29.87,29.84,29.82,10.0,6.1,0.8,14,5,18,0.03,8,Snow,312
2012-10-25,26,22,19,23,20,18,100,92,69,29.98,29.98,29.98,10.0,7.8,1.5,14,5,21,0.00,7,Snow,255
2012-10-26,26,20,14,19,16,10,100,84,68,30.12,30.12,30.12,10.0,8.3,0.2,18,9,28,0.00,4,Fog-Snow,247
2012-10-27,32,26,19,25,20,14,100,78,60,30.03,30.00,29.98,10.0,9.0,3.0,17,11,28,0.00,5,Snow,248
2012-10-28,42,35,28,34,31,25,100,87,65,30.13,30.05,29.98,10.0,8.5,1.0,21,11,28,0.01,5,Rain-Snow,237
2012-10-29,50,42,33,36,33,28,100,78,50,30.21,30.16,30.12,10.0,9.0,0.2,20,9,31,0.00,5,Fog-Rain,244
2012-10-30,50,42,33,32,27,21,87,54,37,30.23,30.20,30.16,10.0,10.0,10.0,24,7,31,0.00,0,,245
2012-10-31,55,48,41,32,25,19,57,43,29,30.23,30.20,30.16,10.0,10.0,10.0,15,8,23,0.00,0,,247